sensor_id;sensor_type;location;lat;lon;timestamp;P1;durP1;ratioP1;P2;durP2;ratioP2
42832;SDS011;28479;51.478;5.692;2022-07-23T00:00:17;6.07;;;2.67;;
42832;SDS011;28479;51.478;5.692;2022-07-23T00:02:44;4.13;;;2.90;;
42832;SDS011;28479;51.478;5.692;2022-07-23T00:05:09;5.00;;;2.70;;
42832;SDS011;28479;51.478;5.692;2022-07-23T00:07:35;4.95;;;3.17;;
42832;SDS011;28479;51.478;5.692;2022-07-23T00:10:02;6.32;;;3.17;;
42832;SDS011;28479;51.478;5.692;2022-07-23T00:12:28;9.70;;;3.00;;
42832;SDS011;28479;51.478;5.692;2022-07-23T00:14:53;7.43;;;3.38;;
42832;SDS011;28479;51.478;5.692;2022-07-23T00:17:25;7.63;;;3.50;;
42832;SDS011;28479;51.478;5.692;2022-07-23T00:19:51;6.40;;;3.03;;
42832;SDS011;28479;51.478;5.692;2022-07-23T00:22:18;4.88;;;3.05;;
42832;SDS011;28479;51.478;5.692;2022-07-23T00:24:44;6.82;;;2.90;;
42832;SDS011;28479;51.478;5.692;2022-07-23T00:27:09;6.95;;;2.90;;
42832;SDS011;28479;51.478;5.692;2022-07-23T00:29:35;9.52;;;3.25;;
42832;SDS011;28479;51.478;5.692;2022-07-23T00:32:01;4.70;;;3.08;;
42832;SDS011;28479;51.478;5.692;2022-07-23T00:34:27;9.10;;;3.55;;
42832;SDS011;28479;51.478;5.692;2022-07-23T00:36:52;5.32;;;2.72;;
42832;SDS011;28479;51.478;5.692;2022-07-23T00:39:19;6.18;;;2.78;;
42832;SDS011;28479;51.478;5.692;2022-07-23T00:41:46;3.92;;;2.80;;
42832;SDS011;28479;51.478;5.692;2022-07-23T00:44:15;3.85;;;2.70;;
42832;SDS011;28479;51.478;5.692;2022-07-23T00:46:45;10.45;;;2.95;;
42832;SDS011;28479;51.478;5.692;2022-07-23T00:49:30;4.25;;;2.72;;
42832;SDS011;28479;51.478;5.692;2022-07-23T00:51:57;3.60;;;2.80;;
42832;SDS011;28479;51.478;5.692;2022-07-23T00:54:26;5.80;;;2.83;;
42832;SDS011;28479;51.478;5.692;2022-07-23T00:56:52;4.30;;;2.58;;
42832;SDS011;28479;51.478;5.692;2022-07-23T00:59:18;3.97;;;2.67;;
42832;SDS011;28479;51.478;5.692;2022-07-23T01:01:44;3.33;;;2.30;;
42832;SDS011;28479;51.478;5.692;2022-07-23T01:04:11;8.13;;;2.80;;
42832;SDS011;28479;51.478;5.692;2022-07-23T01:06:38;4.45;;;2.40;;
42832;SDS011;28479;51.478;5.692;2022-07-23T01:09:04;5.65;;;2.95;;
42832;SDS011;28479;51.478;5.692;2022-07-23T01:11:31;10.10;;;3.00;;
42832;SDS011;28479;51.478;5.692;2022-07-23T01:14:15;4.22;;;2.55;;
42832;SDS011;28479;51.478;5.692;2022-07-23T01:16:44;5.55;;;3.15;;
42832;SDS011;28479;51.478;5.692;2022-07-23T01:19:12;3.15;;;2.58;;
42832;SDS011;28479;51.478;5.692;2022-07-23T01:21:39;7.00;;;2.90;;
42832;SDS011;28479;51.478;5.692;2022-07-23T01:24:06;6.35;;;2.45;;
42832;SDS011;28479;51.478;5.692;2022-07-23T01:26:32;4.43;;;2.92;;
42832;SDS011;28479;51.478;5.692;2022-07-23T01:28:58;7.70;;;3.40;;
42832;SDS011;28479;51.478;5.692;2022-07-23T01:31:24;6.32;;;3.03;;
42832;SDS011;28479;51.478;5.692;2022-07-23T01:33:53;4.43;;;2.97;;
42832;SDS011;28479;51.478;5.692;2022-07-23T01:36:21;4.70;;;3.10;;
42832;SDS011;28479;51.478;5.692;2022-07-23T01:38:50;7.55;;;2.78;;
42832;SDS011;28479;51.478;5.692;2022-07-23T01:41:16;5.18;;;3.50;;
42832;SDS011;28479;51.478;5.692;2022-07-23T01:43:42;3.97;;;2.67;;
42832;SDS011;28479;51.478;5.692;2022-07-23T01:46:08;5.78;;;3.60;;
42832;SDS011;28479;51.478;5.692;2022-07-23T01:48:33;4.68;;;2.95;;
42832;SDS011;28479;51.478;5.692;2022-07-23T01:50:59;5.90;;;3.20;;
42832;SDS011;28479;51.478;5.692;2022-07-23T01:53:25;7.10;;;3.40;;
42832;SDS011;28479;51.478;5.692;2022-07-23T01:55:51;6.88;;;3.00;;
42832;SDS011;28479;51.478;5.692;2022-07-23T01:58:16;8.98;;;3.25;;
42832;SDS011;28479;51.478;5.692;2022-07-23T02:00:42;4.40;;;2.60;;
42832;SDS011;28479;51.478;5.692;2022-07-23T02:03:08;5.85;;;3.08;;
42832;SDS011;28479;51.478;5.692;2022-07-23T02:05:33;9.93;;;3.17;;
42832;SDS011;28479;51.478;5.692;2022-07-23T02:07:59;11.02;;;3.45;;
42832;SDS011;28479;51.478;5.692;2022-07-23T02:10:25;5.93;;;3.50;;
42832;SDS011;28479;51.478;5.692;2022-07-23T02:12:52;12.18;;;3.45;;
42832;SDS011;28479;51.478;5.692;2022-07-23T02:15:18;4.10;;;2.80;;
42832;SDS011;28479;51.478;5.692;2022-07-23T02:17:44;9.55;;;3.35;;
42832;SDS011;28479;51.478;5.692;2022-07-23T02:20:10;6.43;;;3.20;;
42832;SDS011;28479;51.478;5.692;2022-07-23T02:22:36;8.02;;;2.80;;
42832;SDS011;28479;51.478;5.692;2022-07-23T02:25:03;4.78;;;2.63;;
42832;SDS011;28479;51.478;5.692;2022-07-23T02:27:30;4.07;;;2.65;;
42832;SDS011;28479;51.478;5.692;2022-07-23T02:29:56;4.88;;;3.40;;
42832;SDS011;28479;51.478;5.692;2022-07-23T02:32:25;5.35;;;3.03;;
42832;SDS011;28479;51.478;5.692;2022-07-23T02:34:52;5.20;;;3.25;;
42832;SDS011;28479;51.478;5.692;2022-07-23T02:37:18;4.63;;;2.97;;
42832;SDS011;28479;51.478;5.692;2022-07-23T02:39:43;5.78;;;3.28;;
42832;SDS011;28479;51.478;5.692;2022-07-23T02:42:09;3.90;;;2.78;;
42832;SDS011;28479;51.478;5.692;2022-07-23T02:44:35;4.40;;;2.90;;
42832;SDS011;28479;51.478;5.692;2022-07-23T02:47:00;6.93;;;3.20;;
42832;SDS011;28479;51.478;5.692;2022-07-23T02:49:29;5.45;;;3.20;;
42832;SDS011;28479;51.478;5.692;2022-07-23T02:51:54;3.80;;;2.72;;
42832;SDS011;28479;51.478;5.692;2022-07-23T02:54:20;4.18;;;3.28;;
42832;SDS011;28479;51.478;5.692;2022-07-23T02:56:46;3.67;;;2.72;;
42832;SDS011;28479;51.478;5.692;2022-07-23T02:59:11;5.82;;;3.50;;
42832;SDS011;28479;51.478;5.692;2022-07-23T03:01:37;5.32;;;3.10;;
42832;SDS011;28479;51.478;5.692;2022-07-23T03:04:03;8.32;;;3.75;;
42832;SDS011;28479;51.478;5.692;2022-07-23T03:06:28;5.32;;;3.20;;
42832;SDS011;28479;51.478;5.692;2022-07-23T03:08:56;6.88;;;2.97;;
42832;SDS011;28479;51.478;5.692;2022-07-23T03:11:25;7.07;;;4.75;;
42832;SDS011;28479;51.478;5.692;2022-07-23T03:13:51;5.25;;;3.47;;
42832;SDS011;28479;51.478;5.692;2022-07-23T03:16:16;4.63;;;3.13;;
42832;SDS011;28479;51.478;5.692;2022-07-23T03:18:42;9.45;;;3.17;;
42832;SDS011;28479;51.478;5.692;2022-07-23T03:21:07;9.02;;;4.43;;
42832;SDS011;28479;51.478;5.692;2022-07-23T03:23:35;13.05;;;4.20;;
42832;SDS011;28479;51.478;5.692;2022-07-23T03:26:01;7.10;;;3.08;;
42832;SDS011;28479;51.478;5.692;2022-07-23T03:28:29;5.90;;;3.53;;
42832;SDS011;28479;51.478;5.692;2022-07-23T03:30:55;6.93;;;3.78;;
42832;SDS011;28479;51.478;5.692;2022-07-23T03:33:21;6.00;;;3.85;;
42832;SDS011;28479;51.478;5.692;2022-07-23T03:35:50;7.65;;;3.85;;
42832;SDS011;28479;51.478;5.692;2022-07-23T03:38:18;5.65;;;3.17;;
42832;SDS011;28479;51.478;5.692;2022-07-23T03:40:44;5.38;;;3.40;;
42832;SDS011;28479;51.478;5.692;2022-07-23T03:43:09;4.45;;;3.10;;
42832;SDS011;28479;51.478;5.692;2022-07-23T03:45:35;9.98;;;3.63;;
42832;SDS011;28479;51.478;5.692;2022-07-23T03:48:01;5.28;;;3.33;;
42832;SDS011;28479;51.478;5.692;2022-07-23T03:50:26;8.25;;;3.60;;
42832;SDS011;28479;51.478;5.692;2022-07-23T03:52:52;6.00;;;3.53;;
42832;SDS011;28479;51.478;5.692;2022-07-23T03:55:19;8.23;;;3.83;;
42832;SDS011;28479;51.478;5.692;2022-07-23T03:57:44;9.60;;;4.53;;
42832;SDS011;28479;51.478;5.692;2022-07-23T04:00:10;9.77;;;3.60;;
42832;SDS011;28479;51.478;5.692;2022-07-23T04:02:39;7.13;;;4.35;;
42832;SDS011;28479;51.478;5.692;2022-07-23T04:05:05;6.80;;;3.90;;
42832;SDS011;28479;51.478;5.692;2022-07-23T04:07:31;9.30;;;3.95;;
42832;SDS011;28479;51.478;5.692;2022-07-23T04:09:57;7.22;;;3.90;;
42832;SDS011;28479;51.478;5.692;2022-07-23T04:12:23;6.07;;;4.43;;
42832;SDS011;28479;51.478;5.692;2022-07-23T04:14:49;8.43;;;3.78;;
42832;SDS011;28479;51.478;5.692;2022-07-23T04:17:14;16.73;;;4.30;;
42832;SDS011;28479;51.478;5.692;2022-07-23T04:19:40;7.25;;;4.45;;
42832;SDS011;28479;51.478;5.692;2022-07-23T04:22:08;10.98;;;5.07;;
42832;SDS011;28479;51.478;5.692;2022-07-23T04:24:34;7.13;;;4.20;;
42832;SDS011;28479;51.478;5.692;2022-07-23T04:27:00;7.35;;;4.60;;
42832;SDS011;28479;51.478;5.692;2022-07-23T04:29:26;7.55;;;4.28;;
42832;SDS011;28479;51.478;5.692;2022-07-23T04:31:52;7.70;;;4.20;;
42832;SDS011;28479;51.478;5.692;2022-07-23T04:34:17;7.53;;;3.65;;
42832;SDS011;28479;51.478;5.692;2022-07-23T04:36:44;5.93;;;3.78;;
42832;SDS011;28479;51.478;5.692;2022-07-23T04:39:10;5.57;;;3.85;;
42832;SDS011;28479;51.478;5.692;2022-07-23T04:41:36;6.80;;;3.88;;
42832;SDS011;28479;51.478;5.692;2022-07-23T04:44:02;6.63;;;4.18;;
42832;SDS011;28479;51.478;5.692;2022-07-23T04:46:28;9.13;;;5.05;;
42832;SDS011;28479;51.478;5.692;2022-07-23T04:48:56;6.85;;;4.03;;
42832;SDS011;28479;51.478;5.692;2022-07-23T04:51:25;6.70;;;4.25;;
42832;SDS011;28479;51.478;5.692;2022-07-23T04:53:51;8.20;;;4.25;;
42832;SDS011;28479;51.478;5.692;2022-07-23T04:56:16;10.13;;;4.47;;
42832;SDS011;28479;51.478;5.692;2022-07-23T04:58:42;8.18;;;4.63;;
42832;SDS011;28479;51.478;5.692;2022-07-23T05:01:08;7.90;;;4.57;;
42832;SDS011;28479;51.478;5.692;2022-07-23T05:03:34;8.85;;;4.68;;
42832;SDS011;28479;51.478;5.692;2022-07-23T05:06:00;9.20;;;4.65;;
42832;SDS011;28479;51.478;5.692;2022-07-23T05:08:25;9.35;;;5.13;;
42832;SDS011;28479;51.478;5.692;2022-07-23T05:10:51;9.73;;;4.70;;
42832;SDS011;28479;51.478;5.692;2022-07-23T05:13:17;7.03;;;4.50;;
42832;SDS011;28479;51.478;5.692;2022-07-23T05:15:43;10.02;;;4.07;;
42832;SDS011;28479;51.478;5.692;2022-07-23T05:18:09;14.88;;;4.55;;
42832;SDS011;28479;51.478;5.692;2022-07-23T05:20:35;8.30;;;4.82;;
42832;SDS011;28479;51.478;5.692;2022-07-23T05:23:01;8.95;;;4.97;;
42832;SDS011;28479;51.478;5.692;2022-07-23T05:25:27;8.80;;;4.43;;
42832;SDS011;28479;51.478;5.692;2022-07-23T05:27:53;9.75;;;4.78;;
42832;SDS011;28479;51.478;5.692;2022-07-23T05:30:18;9.60;;;4.20;;
42832;SDS011;28479;51.478;5.692;2022-07-23T05:32:44;5.60;;;4.20;;
42832;SDS011;28479;51.478;5.692;2022-07-23T05:35:09;6.95;;;4.65;;
42832;SDS011;28479;51.478;5.692;2022-07-23T05:37:35;9.70;;;5.40;;
42832;SDS011;28479;51.478;5.692;2022-07-23T05:40:05;11.13;;;4.65;;
42832;SDS011;28479;51.478;5.692;2022-07-23T05:42:33;7.35;;;4.78;;
42832;SDS011;28479;51.478;5.692;2022-07-23T05:45:00;8.52;;;5.07;;
42832;SDS011;28479;51.478;5.692;2022-07-23T05:47:25;11.73;;;5.45;;
42832;SDS011;28479;51.478;5.692;2022-07-23T05:49:51;12.32;;;4.95;;
42832;SDS011;28479;51.478;5.692;2022-07-23T05:52:17;7.45;;;5.25;;
42832;SDS011;28479;51.478;5.692;2022-07-23T05:54:42;6.70;;;4.53;;
42832;SDS011;28479;51.478;5.692;2022-07-23T05:57:08;12.40;;;5.10;;
42832;SDS011;28479;51.478;5.692;2022-07-23T05:59:34;9.95;;;4.95;;
42832;SDS011;28479;51.478;5.692;2022-07-23T06:01:59;11.82;;;4.60;;
42832;SDS011;28479;51.478;5.692;2022-07-23T06:04:25;8.77;;;4.43;;
42832;SDS011;28479;51.478;5.692;2022-07-23T06:06:50;9.38;;;4.20;;
42832;SDS011;28479;51.478;5.692;2022-07-23T06:09:16;13.10;;;4.20;;
42832;SDS011;28479;51.478;5.692;2022-07-23T06:11:43;8.15;;;4.22;;
42832;SDS011;28479;51.478;5.692;2022-07-23T06:14:08;5.63;;;3.58;;
42832;SDS011;28479;51.478;5.692;2022-07-23T06:16:34;6.45;;;3.70;;
42832;SDS011;28479;51.478;5.692;2022-07-23T06:18:59;8.02;;;3.97;;
42832;SDS011;28479;51.478;5.692;2022-07-23T06:21:25;5.30;;;3.28;;
42832;SDS011;28479;51.478;5.692;2022-07-23T06:23:51;7.82;;;4.32;;
42832;SDS011;28479;51.478;5.692;2022-07-23T06:26:16;7.72;;;4.88;;
42832;SDS011;28479;51.478;5.692;2022-07-23T06:28:42;9.73;;;3.83;;
42832;SDS011;28479;51.478;5.692;2022-07-23T06:31:07;5.93;;;3.70;;
42832;SDS011;28479;51.478;5.692;2022-07-23T06:33:33;5.68;;;3.35;;
42832;SDS011;28479;51.478;5.692;2022-07-23T06:35:59;4.30;;;3.25;;
42832;SDS011;28479;51.478;5.692;2022-07-23T06:38:24;4.68;;;3.33;;
42832;SDS011;28479;51.478;5.692;2022-07-23T06:40:53;8.43;;;3.20;;
42832;SDS011;28479;51.478;5.692;2022-07-23T06:43:21;4.47;;;2.97;;
42832;SDS011;28479;51.478;5.692;2022-07-23T06:45:49;3.80;;;3.05;;
42832;SDS011;28479;51.478;5.692;2022-07-23T06:48:15;4.07;;;3.33;;
42832;SDS011;28479;51.478;5.692;2022-07-23T06:50:40;4.90;;;3.15;;
42832;SDS011;28479;51.478;5.692;2022-07-23T06:53:06;7.10;;;3.45;;
42832;SDS011;28479;51.478;5.692;2022-07-23T06:55:32;3.53;;;2.50;;
42832;SDS011;28479;51.478;5.692;2022-07-23T06:58:00;6.15;;;2.70;;
42832;SDS011;28479;51.478;5.692;2022-07-23T07:00:26;3.90;;;2.97;;
42832;SDS011;28479;51.478;5.692;2022-07-23T07:02:53;8.68;;;2.70;;
42832;SDS011;28479;51.478;5.692;2022-07-23T07:05:19;4.28;;;2.67;;
42832;SDS011;28479;51.478;5.692;2022-07-23T07:07:45;3.67;;;2.75;;
42832;SDS011;28479;51.478;5.692;2022-07-23T07:10:10;7.05;;;2.88;;
42832;SDS011;28479;51.478;5.692;2022-07-23T07:12:36;4.72;;;3.65;;
42832;SDS011;28479;51.478;5.692;2022-07-23T07:15:01;6.47;;;3.22;;
42832;SDS011;28479;51.478;5.692;2022-07-23T07:17:27;9.80;;;3.30;;
42832;SDS011;28479;51.478;5.692;2022-07-23T07:19:53;7.35;;;2.78;;
42832;SDS011;28479;51.478;5.692;2022-07-23T07:22:18;3.13;;;2.50;;
42832;SDS011;28479;51.478;5.692;2022-07-23T07:24:44;4.15;;;2.05;;
42832;SDS011;28479;51.478;5.692;2022-07-23T07:27:10;8.95;;;3.45;;
42832;SDS011;28479;51.478;5.692;2022-07-23T07:29:38;3.55;;;2.75;;
42832;SDS011;28479;51.478;5.692;2022-07-23T07:32:04;9.35;;;2.97;;
42832;SDS011;28479;51.478;5.692;2022-07-23T07:34:30;5.07;;;2.88;;
42832;SDS011;28479;51.478;5.692;2022-07-23T07:36:55;4.95;;;3.08;;
42832;SDS011;28479;51.478;5.692;2022-07-23T07:39:21;3.33;;;2.67;;
42832;SDS011;28479;51.478;5.692;2022-07-23T07:41:46;3.58;;;2.53;;
42832;SDS011;28479;51.478;5.692;2022-07-23T07:44:12;4.63;;;2.50;;
42832;SDS011;28479;51.478;5.692;2022-07-23T07:46:38;2.97;;;2.20;;
42832;SDS011;28479;51.478;5.692;2022-07-23T07:49:03;4.18;;;2.90;;
42832;SDS011;28479;51.478;5.692;2022-07-23T07:51:29;10.10;;;5.40;;
42832;SDS011;28479;51.478;5.692;2022-07-23T07:53:54;7.45;;;2.58;;
42832;SDS011;28479;51.478;5.692;2022-07-23T07:56:21;8.77;;;3.08;;
42832;SDS011;28479;51.478;5.692;2022-07-23T07:58:46;8.05;;;2.80;;
42832;SDS011;28479;51.478;5.692;2022-07-23T08:01:12;6.88;;;2.92;;
42832;SDS011;28479;51.478;5.692;2022-07-23T08:03:37;15.48;;;3.45;;
42832;SDS011;28479;51.478;5.692;2022-07-23T08:06:03;4.53;;;2.63;;
42832;SDS011;28479;51.478;5.692;2022-07-23T08:08:29;5.32;;;2.67;;
42832;SDS011;28479;51.478;5.692;2022-07-23T08:10:57;3.17;;;2.28;;
42832;SDS011;28479;51.478;5.692;2022-07-23T08:13:23;5.93;;;2.38;;
42832;SDS011;28479;51.478;5.692;2022-07-23T08:15:48;6.70;;;3.78;;
42832;SDS011;28479;51.478;5.692;2022-07-23T08:18:14;6.25;;;3.75;;
42832;SDS011;28479;51.478;5.692;2022-07-23T08:20:40;9.63;;;3.50;;
42832;SDS011;28479;51.478;5.692;2022-07-23T08:23:07;3.45;;;2.88;;
42832;SDS011;28479;51.478;5.692;2022-07-23T08:28:01;7.32;;;3.17;;
42832;SDS011;28479;51.478;5.692;2022-07-23T08:30:28;6.03;;;2.92;;
42832;SDS011;28479;51.478;5.692;2022-07-23T08:32:59;8.30;;;3.70;;
42832;SDS011;28479;51.478;5.692;2022-07-23T08:35:41;7.72;;;3.67;;
42832;SDS011;28479;51.478;5.692;2022-07-23T08:38:11;4.35;;;2.70;;
42832;SDS011;28479;51.478;5.692;2022-07-23T08:40:40;3.95;;;2.03;;
42832;SDS011;28479;51.478;5.692;2022-07-23T08:43:11;4.45;;;1.90;;
42832;SDS011;28479;51.478;5.692;2022-07-23T08:45:44;4.65;;;2.10;;
42832;SDS011;28479;51.478;5.692;2022-07-23T08:48:16;3.95;;;2.53;;
42832;SDS011;28479;51.478;5.692;2022-07-23T08:50:47;6.45;;;1.92;;
42832;SDS011;28479;51.478;5.692;2022-07-23T08:53:16;3.95;;;2.00;;
42832;SDS011;28479;51.478;5.692;2022-07-23T08:55:43;2.78;;;1.70;;
42832;SDS011;28479;51.478;5.692;2022-07-23T08:58:10;5.88;;;2.30;;
42832;SDS011;28479;51.478;5.692;2022-07-23T09:00:36;3.60;;;2.25;;
42832;SDS011;28479;51.478;5.692;2022-07-23T09:03:02;4.07;;;1.70;;
42832;SDS011;28479;51.478;5.692;2022-07-23T09:05:28;2.55;;;1.88;;
42832;SDS011;28479;51.478;5.692;2022-07-23T09:08:09;2.90;;;1.77;;
42832;SDS011;28479;51.478;5.692;2022-07-23T09:10:43;3.45;;;2.17;;
42832;SDS011;28479;51.478;5.692;2022-07-23T09:16:23;2.97;;;1.80;;
42832;SDS011;28479;51.478;5.692;2022-07-23T09:21:19;9.25;;;3.13;;
42832;SDS011;28479;51.478;5.692;2022-07-23T09:29:21;4.80;;;2.40;;
42832;SDS011;28479;51.478;5.692;2022-07-23T09:37:10;3.35;;;2.58;;
42832;SDS011;28479;51.478;5.692;2022-07-23T09:39:38;3.30;;;2.40;;
42832;SDS011;28479;51.478;5.692;2022-07-23T09:44:52;5.53;;;2.30;;
42832;SDS011;28479;51.478;5.692;2022-07-23T09:47:19;3.17;;;2.50;;
42832;SDS011;28479;51.478;5.692;2022-07-23T09:52:45;4.28;;;2.28;;
42832;SDS011;28479;51.478;5.692;2022-07-23T09:55:15;13.30;;;2.60;;
42832;SDS011;28479;51.478;5.692;2022-07-23T09:57:42;8.10;;;2.80;;
42832;SDS011;28479;51.478;5.692;2022-07-23T10:00:10;4.00;;;2.72;;
42832;SDS011;28479;51.478;5.692;2022-07-23T10:02:37;5.32;;;2.40;;
42832;SDS011;28479;51.478;5.692;2022-07-23T10:05:04;3.83;;;2.15;;
42832;SDS011;28479;51.478;5.692;2022-07-23T10:07:31;4.85;;;2.33;;
42832;SDS011;28479;51.478;5.692;2022-07-23T10:10:00;7.82;;;2.55;;
42832;SDS011;28479;51.478;5.692;2022-07-23T10:12:26;5.18;;;2.53;;
42832;SDS011;28479;51.478;5.692;2022-07-23T10:14:58;8.50;;;2.75;;
42832;SDS011;28479;51.478;5.692;2022-07-23T10:17:32;13.40;;;3.17;;
42832;SDS011;28479;51.478;5.692;2022-07-23T10:19:58;4.15;;;2.60;;
42832;SDS011;28479;51.478;5.692;2022-07-23T10:22:25;5.15;;;2.38;;
42832;SDS011;28479;51.478;5.692;2022-07-23T10:25:08;4.63;;;2.50;;
42832;SDS011;28479;51.478;5.692;2022-07-23T10:31:16;5.35;;;1.90;;
42832;SDS011;28479;51.478;5.692;2022-07-23T10:38:54;2.90;;;1.70;;
42832;SDS011;28479;51.478;5.692;2022-07-23T10:41:35;8.80;;;2.42;;
42832;SDS011;28479;51.478;5.692;2022-07-23T10:44:07;4.30;;;1.60;;
42832;SDS011;28479;51.478;5.692;2022-07-23T10:49:41;2.67;;;1.10;;
42832;SDS011;28479;51.478;5.692;2022-07-23T10:54:39;3.15;;;1.20;;
42832;SDS011;28479;51.478;5.692;2022-07-23T10:57:05;2.25;;;1.90;;
42832;SDS011;28479;51.478;5.692;2022-07-23T11:02:37;2.33;;;1.67;;
42832;SDS011;28479;51.478;5.692;2022-07-23T11:05:14;1.50;;;1.27;;
42832;SDS011;28479;51.478;5.692;2022-07-23T11:16:22;5.50;;;1.42;;
42832;SDS011;28479;51.478;5.692;2022-07-23T11:18:56;3.17;;;1.60;;
42832;SDS011;28479;51.478;5.692;2022-07-23T11:37:07;4.05;;;1.50;;
42832;SDS011;28479;51.478;5.692;2022-07-23T11:39:35;2.47;;;1.90;;
42832;SDS011;28479;51.478;5.692;2022-07-23T11:42:02;8.10;;;2.42;;
42832;SDS011;28479;51.478;5.692;2022-07-23T11:47:02;2.38;;;1.55;;
42832;SDS011;28479;51.478;5.692;2022-07-23T11:49:29;5.35;;;1.83;;
42832;SDS011;28479;51.478;5.692;2022-07-23T11:52:06;2.05;;;1.67;;
42832;SDS011;28479;51.478;5.692;2022-07-23T11:54:48;3.23;;;1.70;;
42832;SDS011;28479;51.478;5.692;2022-07-23T11:57:19;3.80;;;2.20;;
42832;SDS011;28479;51.478;5.692;2022-07-23T11:59:50;5.80;;;2.85;;
42832;SDS011;28479;51.478;5.692;2022-07-23T12:02:19;3.83;;;2.20;;
42832;SDS011;28479;51.478;5.692;2022-07-23T12:04:46;2.75;;;2.00;;
42832;SDS011;28479;51.478;5.692;2022-07-23T12:10:03;3.35;;;1.38;;
42832;SDS011;28479;51.478;5.692;2022-07-23T12:12:39;1.77;;;1.60;;
42832;SDS011;28479;51.478;5.692;2022-07-23T12:15:07;3.10;;;1.92;;
42832;SDS011;28479;51.478;5.692;2022-07-23T12:17:35;1.60;;;1.40;;
42832;SDS011;28479;51.478;5.692;2022-07-23T12:20:24;2.72;;;1.58;;
42832;SDS011;28479;51.478;5.692;2022-07-23T12:22:52;6.28;;;1.65;;
42832;SDS011;28479;51.478;5.692;2022-07-23T12:25:21;4.20;;;1.58;;
42832;SDS011;28479;51.478;5.692;2022-07-23T12:28:10;2.67;;;1.40;;
42832;SDS011;28479;51.478;5.692;2022-07-23T12:30:39;2.85;;;1.58;;
42832;SDS011;28479;51.478;5.692;2022-07-23T12:33:10;3.00;;;1.83;;
42832;SDS011;28479;51.478;5.692;2022-07-23T12:35:46;7.38;;;1.88;;
42832;SDS011;28479;51.478;5.692;2022-07-23T12:38:16;5.32;;;1.75;;
42832;SDS011;28479;51.478;5.692;2022-07-23T12:40:56;4.40;;;1.85;;
42832;SDS011;28479;51.478;5.692;2022-07-23T12:48:33;3.00;;;1.90;;
42832;SDS011;28479;51.478;5.692;2022-07-23T12:51:02;2.95;;;1.92;;
42832;SDS011;28479;51.478;5.692;2022-07-23T12:53:30;3.75;;;1.60;;
42832;SDS011;28479;51.478;5.692;2022-07-23T12:56:05;2.05;;;1.80;;
42832;SDS011;28479;51.478;5.692;2022-07-23T12:58:45;2.05;;;1.55;;
42832;SDS011;28479;51.478;5.692;2022-07-23T13:01:27;3.25;;;1.60;;
42832;SDS011;28479;51.478;5.692;2022-07-23T13:04:05;2.63;;;1.42;;
42832;SDS011;28479;51.478;5.692;2022-07-23T13:06:34;2.58;;;1.77;;
42832;SDS011;28479;51.478;5.692;2022-07-23T13:09:01;2.33;;;1.90;;
42832;SDS011;28479;51.478;5.692;2022-07-23T13:11:28;2.70;;;1.75;;
42832;SDS011;28479;51.478;5.692;2022-07-23T13:13:54;5.05;;;2.45;;
42832;SDS011;28479;51.478;5.692;2022-07-23T13:16:22;3.03;;;1.95;;
42832;SDS011;28479;51.478;5.692;2022-07-23T13:18:48;4.95;;;2.03;;
42832;SDS011;28479;51.478;5.692;2022-07-23T13:21:14;1.58;;;1.45;;
42832;SDS011;28479;51.478;5.692;2022-07-23T13:23:40;1.30;;;1.15;;
42832;SDS011;28479;51.478;5.692;2022-07-23T13:26:06;4.45;;;1.58;;
42832;SDS011;28479;51.478;5.692;2022-07-23T13:28:32;2.60;;;1.60;;
42832;SDS011;28479;51.478;5.692;2022-07-23T13:30:57;2.80;;;1.50;;
42832;SDS011;28479;51.478;5.692;2022-07-23T13:33:23;2.53;;;1.52;;
42832;SDS011;28479;51.478;5.692;2022-07-23T13:35:50;4.63;;;1.50;;
42832;SDS011;28479;51.478;5.692;2022-07-23T13:38:17;2.47;;;2.22;;
42832;SDS011;28479;51.478;5.692;2022-07-23T13:40:44;5.13;;;1.95;;
42832;SDS011;28479;51.478;5.692;2022-07-23T13:43:12;4.65;;;1.67;;
42832;SDS011;28479;51.478;5.692;2022-07-23T13:45:39;4.35;;;1.77;;
42832;SDS011;28479;51.478;5.692;2022-07-23T13:48:07;2.53;;;2.13;;
42832;SDS011;28479;51.478;5.692;2022-07-23T13:50:34;2.85;;;2.00;;
42832;SDS011;28479;51.478;5.692;2022-07-23T13:53:05;3.67;;;1.80;;
42832;SDS011;28479;51.478;5.692;2022-07-23T13:55:32;3.28;;;1.67;;
42832;SDS011;28479;51.478;5.692;2022-07-23T13:57:59;3.35;;;1.92;;
42832;SDS011;28479;51.478;5.692;2022-07-23T14:00:26;3.80;;;1.70;;
42832;SDS011;28479;51.478;5.692;2022-07-23T14:02:52;6.53;;;1.77;;
42832;SDS011;28479;51.478;5.692;2022-07-23T14:05:18;4.63;;;1.63;;
42832;SDS011;28479;51.478;5.692;2022-07-23T14:07:44;5.43;;;2.05;;
42832;SDS011;28479;51.478;5.692;2022-07-23T14:10:11;2.80;;;2.00;;
42832;SDS011;28479;51.478;5.692;2022-07-23T14:12:37;3.67;;;2.05;;
42832;SDS011;28479;51.478;5.692;2022-07-23T14:15:04;5.85;;;2.10;;
42832;SDS011;28479;51.478;5.692;2022-07-23T14:17:33;3.05;;;2.05;;
42832;SDS011;28479;51.478;5.692;2022-07-23T14:19:59;4.38;;;2.05;;
42832;SDS011;28479;51.478;5.692;2022-07-23T14:22:25;3.42;;;1.40;;
42832;SDS011;28479;51.478;5.692;2022-07-23T14:24:50;2.25;;;1.75;;
42832;SDS011;28479;51.478;5.692;2022-07-23T14:27:16;1.77;;;1.35;;
42832;SDS011;28479;51.478;5.692;2022-07-23T14:29:45;2.22;;;1.80;;
42832;SDS011;28479;51.478;5.692;2022-07-23T14:32:10;1.80;;;1.65;;
42832;SDS011;28479;51.478;5.692;2022-07-23T14:34:36;2.85;;;2.00;;
42832;SDS011;28479;51.478;5.692;2022-07-23T14:37:02;3.97;;;1.88;;
42832;SDS011;28479;51.478;5.692;2022-07-23T14:39:28;3.22;;;1.85;;
42832;SDS011;28479;51.478;5.692;2022-07-23T14:41:53;2.78;;;2.00;;
42832;SDS011;28479;51.478;5.692;2022-07-23T14:44:25;4.38;;;2.08;;
42832;SDS011;28479;51.478;5.692;2022-07-23T14:46:50;1.70;;;1.30;;
42832;SDS011;28479;51.478;5.692;2022-07-23T14:49:17;1.88;;;1.35;;
42832;SDS011;28479;51.478;5.692;2022-07-23T14:51:43;1.77;;;1.27;;
42832;SDS011;28479;51.478;5.692;2022-07-23T14:54:09;2.53;;;1.40;;
42832;SDS011;28479;51.478;5.692;2022-07-23T14:56:35;1.92;;;1.50;;
42832;SDS011;28479;51.478;5.692;2022-07-23T14:59:04;4.75;;;1.90;;
42832;SDS011;28479;51.478;5.692;2022-07-23T15:01:30;7.00;;;1.77;;
42832;SDS011;28479;51.478;5.692;2022-07-23T15:03:55;5.28;;;1.95;;
42832;SDS011;28479;51.478;5.692;2022-07-23T15:06:21;2.55;;;1.45;;
42832;SDS011;28479;51.478;5.692;2022-07-23T15:08:46;3.38;;;1.90;;
42832;SDS011;28479;51.478;5.692;2022-07-23T15:11:12;5.15;;;1.85;;
42832;SDS011;28479;51.478;5.692;2022-07-23T15:13:38;2.28;;;1.58;;
42832;SDS011;28479;51.478;5.692;2022-07-23T15:16:04;3.22;;;1.98;;
42832;SDS011;28479;51.478;5.692;2022-07-23T15:18:30;3.55;;;1.63;;
42832;SDS011;28479;51.478;5.692;2022-07-23T15:20:55;1.90;;;1.45;;
42832;SDS011;28479;51.478;5.692;2022-07-23T15:23:21;3.90;;;1.90;;
42832;SDS011;28479;51.478;5.692;2022-07-23T15:25:50;2.45;;;1.60;;
42832;SDS011;28479;51.478;5.692;2022-07-23T15:28:15;3.75;;;1.50;;
42832;SDS011;28479;51.478;5.692;2022-07-23T15:30:41;4.00;;;1.70;;
42832;SDS011;28479;51.478;5.692;2022-07-23T15:33:07;3.63;;;1.80;;
42832;SDS011;28479;51.478;5.692;2022-07-23T15:35:32;2.75;;;1.83;;
42832;SDS011;28479;51.478;5.692;2022-07-23T15:37:58;3.42;;;1.63;;
42832;SDS011;28479;51.478;5.692;2022-07-23T15:40:24;5.40;;;1.95;;
42832;SDS011;28479;51.478;5.692;2022-07-23T15:42:50;1.58;;;1.40;;
42832;SDS011;28479;51.478;5.692;2022-07-23T15:45:16;1.70;;;1.35;;
42832;SDS011;28479;51.478;5.692;2022-07-23T15:47:41;3.10;;;1.48;;
42832;SDS011;28479;51.478;5.692;2022-07-23T15:50:09;9.27;;;1.70;;
42832;SDS011;28479;51.478;5.692;2022-07-23T15:52:35;3.42;;;1.60;;
42832;SDS011;28479;51.478;5.692;2022-07-23T15:55:01;3.25;;;1.80;;
42832;SDS011;28479;51.478;5.692;2022-07-23T15:57:27;10.10;;;3.45;;
42832;SDS011;28479;51.478;5.692;2022-07-23T15:59:53;2.00;;;1.70;;
42832;SDS011;28479;51.478;5.692;2022-07-23T16:02:21;1.60;;;1.30;;
42832;SDS011;28479;51.478;5.692;2022-07-23T16:04:50;4.38;;;2.13;;